sensor_id;sensor_type;location;lat;lon;timestamp;temperature;humidity
26909;DHT22;14477;51.038;4.588;2023-04-15T00:01:23;12.00;95.10
26909;DHT22;14477;51.038;4.588;2023-04-15T00:03:53;12.00;95.20
26909;DHT22;14477;51.038;4.588;2023-04-15T00:06:19;12.00;95.10
26909;DHT22;14477;51.038;4.588;2023-04-15T00:08:46;12.00;95.30
26909;DHT22;14477;51.038;4.588;2023-04-15T00:11:12;12.00;95.30
26909;DHT22;14477;51.038;4.588;2023-04-15T00:13:38;12.00;95.20
26909;DHT22;14477;51.038;4.588;2023-04-15T00:16:05;12.00;95.30
26909;DHT22;14477;51.038;4.588;2023-04-15T00:18:32;12.00;95.30
26909;DHT22;14477;51.038;4.588;2023-04-15T00:20:58;12.00;95.40
26909;DHT22;14477;51.038;4.588;2023-04-15T00:23:25;12.10;95.40
26909;DHT22;14477;51.038;4.588;2023-04-15T00:25:50;12.00;95.30
26909;DHT22;14477;51.038;4.588;2023-04-15T00:28:16;12.10;95.40
26909;DHT22;14477;51.038;4.588;2023-04-15T00:30:42;12.00;95.40
26909;DHT22;14477;51.038;4.588;2023-04-15T00:33:08;12.00;95.50
26909;DHT22;14477;51.038;4.588;2023-04-15T00:35:35;12.00;95.60
26909;DHT22;14477;51.038;4.588;2023-04-15T00:38:02;12.00;95.60
26909;DHT22;14477;51.038;4.588;2023-04-15T00:40:29;12.00;95.70
26909;DHT22;14477;51.038;4.588;2023-04-15T00:42:55;12.00;95.60
26909;DHT22;14477;51.038;4.588;2023-04-15T00:45:20;12.00;95.70
26909;DHT22;14477;51.038;4.588;2023-04-15T00:47:46;12.00;95.70
26909;DHT22;14477;51.038;4.588;2023-04-15T00:50:12;12.00;95.70
26909;DHT22;14477;51.038;4.588;2023-04-15T00:52:39;12.00;95.60
26909;DHT22;14477;51.038;4.588;2023-04-15T00:55:05;12.00;95.70
26909;DHT22;14477;51.038;4.588;2023-04-15T00:57:32;12.00;95.80
26909;DHT22;14477;51.038;4.588;2023-04-15T00:59:58;12.00;95.90
26909;DHT22;14477;51.038;4.588;2023-04-15T01:02:24;12.00;95.90
26909;DHT22;14477;51.038;4.588;2023-04-15T01:04:50;12.00;95.90
26909;DHT22;14477;51.038;4.588;2023-04-15T01:07:16;12.00;95.80
26909;DHT22;14477;51.038;4.588;2023-04-15T01:09:42;12.00;95.90
26909;DHT22;14477;51.038;4.588;2023-04-15T01:12:11;12.00;95.90
26909;DHT22;14477;51.038;4.588;2023-04-15T01:14:38;12.00;95.90
26909;DHT22;14477;51.038;4.588;2023-04-15T01:17:04;12.00;96.00
26909;DHT22;14477;51.038;4.588;2023-04-15T01:19:30;12.00;96.00
26909;DHT22;14477;51.038;4.588;2023-04-15T01:21:56;11.90;96.00
26909;DHT22;14477;51.038;4.588;2023-04-15T01:24:23;11.90;96.40
26909;DHT22;14477;51.038;4.588;2023-04-15T01:26:50;11.90;96.10
26909;DHT22;14477;51.038;4.588;2023-04-15T01:29:16;11.90;96.20
26909;DHT22;14477;51.038;4.588;2023-04-15T01:31:54;11.90;96.20
26909;DHT22;14477;51.038;4.588;2023-04-15T01:34:20;11.90;96.00
26909;DHT22;14477;51.038;4.588;2023-04-15T01:36:47;11.90;96.40
26909;DHT22;14477;51.038;4.588;2023-04-15T01:39:12;11.90;96.30
26909;DHT22;14477;51.038;4.588;2023-04-15T01:41:38;11.90;96.40
26909;DHT22;14477;51.038;4.588;2023-04-15T01:44:05;11.90;96.40
26909;DHT22;14477;51.038;4.588;2023-04-15T01:46:31;11.90;96.40
26909;DHT22;14477;51.038;4.588;2023-04-15T01:48:57;11.90;96.50
26909;DHT22;14477;51.038;4.588;2023-04-15T01:51:23;11.90;96.50
26909;DHT22;14477;51.038;4.588;2023-04-15T01:53:48;11.90;96.50
26909;DHT22;14477;51.038;4.588;2023-04-15T01:56:14;11.90;96.60
26909;DHT22;14477;51.038;4.588;2023-04-15T01:58:41;11.90;96.60
26909;DHT22;14477;51.038;4.588;2023-04-15T02:01:07;11.90;96.60
26909;DHT22;14477;51.038;4.588;2023-04-15T02:03:34;11.90;96.60
26909;DHT22;14477;51.038;4.588;2023-04-15T02:06:00;11.90;96.60
26909;DHT22;14477;51.038;4.588;2023-04-15T02:08:26;11.90;96.90
26909;DHT22;14477;51.038;4.588;2023-04-15T02:10:51;11.90;96.60
26909;DHT22;14477;51.038;4.588;2023-04-15T02:13:17;11.80;96.60
26909;DHT22;14477;51.038;4.588;2023-04-15T02:15:50;11.80;96.60
26909;DHT22;14477;51.038;4.588;2023-04-15T02:18:17;11.80;96.40
26909;DHT22;14477;51.038;4.588;2023-04-15T02:20:43;11.80;96.60
26909;DHT22;14477;51.038;4.588;2023-04-15T02:23:09;11.80;96.70
26909;DHT22;14477;51.038;4.588;2023-04-15T02:25:35;11.80;96.80
26909;DHT22;14477;51.038;4.588;2023-04-15T02:28:01;11.80;96.80
26909;DHT22;14477;51.038;4.588;2023-04-15T02:30:27;11.80;96.90
26909;DHT22;14477;51.038;4.588;2023-04-15T02:32:53;11.80;96.90
26909;DHT22;14477;51.038;4.588;2023-04-15T02:35:18;11.80;96.90
26909;DHT22;14477;51.038;4.588;2023-04-15T02:37:44;11.80;96.90
26909;DHT22;14477;51.038;4.588;2023-04-15T02:40:11;11.70;96.80
26909;DHT22;14477;51.038;4.588;2023-04-15T02:42:41;11.70;96.70
26909;DHT22;14477;51.038;4.588;2023-04-15T02:45:07;11.70;96.50
26909;DHT22;14477;51.038;4.588;2023-04-15T02:47:36;11.70;96.60
26909;DHT22;14477;51.038;4.588;2023-04-15T02:50:06;11.70;96.40
26909;DHT22;14477;51.038;4.588;2023-04-15T02:52:32;11.70;96.60
26909;DHT22;14477;51.038;4.588;2023-04-15T02:54:58;11.70;96.70
26909;DHT22;14477;51.038;4.588;2023-04-15T02:57:27;11.60;96.70
26909;DHT22;14477;51.038;4.588;2023-04-15T02:59:56;11.60;96.60
26909;DHT22;14477;51.038;4.588;2023-04-15T03:02:22;11.60;96.70
26909;DHT22;14477;51.038;4.588;2023-04-15T03:04:47;11.60;96.80
26909;DHT22;14477;51.038;4.588;2023-04-15T03:07:13;11.60;96.70
26909;DHT22;14477;51.038;4.588;2023-04-15T03:09:39;11.60;96.80
26909;DHT22;14477;51.038;4.588;2023-04-15T03:12:06;11.60;96.90
26909;DHT22;14477;51.038;4.588;2023-04-15T03:14:31;11.60;96.80
26909;DHT22;14477;51.038;4.588;2023-04-15T03:16:57;11.60;96.90
26909;DHT22;14477;51.038;4.588;2023-04-15T03:19:24;11.60;96.90
26909;DHT22;14477;51.038;4.588;2023-04-15T03:21:50;11.60;96.90
26909;DHT22;14477;51.038;4.588;2023-04-15T03:24:16;11.60;96.90
26909;DHT22;14477;51.038;4.588;2023-04-15T03:26:42;11.50;96.70
26909;DHT22;14477;51.038;4.588;2023-04-15T03:29:08;11.60;96.80
26909;DHT22;14477;51.038;4.588;2023-04-15T03:31:34;11.60;96.80
26909;DHT22;14477;51.038;4.588;2023-04-15T03:34:00;11.50;96.80
26909;DHT22;14477;51.038;4.588;2023-04-15T03:36:28;11.50;96.90
26909;DHT22;14477;51.038;4.588;2023-04-15T03:38:54;11.50;96.80
26909;DHT22;14477;51.038;4.588;2023-04-15T03:41:21;11.50;96.90
26909;DHT22;14477;51.038;4.588;2023-04-15T03:43:46;11.50;96.90
26909;DHT22;14477;51.038;4.588;2023-04-15T03:46:12;11.50;96.90
26909;DHT22;14477;51.038;4.588;2023-04-15T03:48:38;11.50;96.90
26909;DHT22;14477;51.038;4.588;2023-04-15T03:51:04;11.40;96.90
26909;DHT22;14477;51.038;4.588;2023-04-15T03:53:30;11.50;97.00
26909;DHT22;14477;51.038;4.588;2023-04-15T03:55:56;11.40;97.00
26909;DHT22;14477;51.038;4.588;2023-04-15T03:58:21;11.40;97.10
26909;DHT22;14477;51.038;4.588;2023-04-15T04:00:47;11.40;97.10
26909;DHT22;14477;51.038;4.588;2023-04-15T04:03:13;11.40;97.10
26909;DHT22;14477;51.038;4.588;2023-04-15T04:05:39;11.30;97.10
26909;DHT22;14477;51.038;4.588;2023-04-15T04:08:06;11.30;97.10
26909;DHT22;14477;51.038;4.588;2023-04-15T04:10:31;11.30;97.20
26909;DHT22;14477;51.038;4.588;2023-04-15T04:12:57;11.30;97.20
26909;DHT22;14477;51.038;4.588;2023-04-15T04:15:23;11.30;97.20
26909;DHT22;14477;51.038;4.588;2023-04-15T04:17:48;11.30;97.20
26909;DHT22;14477;51.038;4.588;2023-04-15T04:20:14;11.30;97.30
26909;DHT22;14477;51.038;4.588;2023-04-15T04:22:40;11.30;97.40
26909;DHT22;14477;51.038;4.588;2023-04-15T04:25:06;11.30;97.40
26909;DHT22;14477;51.038;4.588;2023-04-15T04:27:33;11.20;97.40
26909;DHT22;14477;51.038;4.588;2023-04-15T04:29:59;11.20;97.40
26909;DHT22;14477;51.038;4.588;2023-04-15T04:32:25;11.20;97.40
26909;DHT22;14477;51.038;4.588;2023-04-15T04:34:50;11.20;97.40
26909;DHT22;14477;51.038;4.588;2023-04-15T04:37:16;11.20;97.40
26909;DHT22;14477;51.038;4.588;2023-04-15T04:39:43;11.20;97.40
26909;DHT22;14477;51.038;4.588;2023-04-15T04:42:08;11.20;97.40
26909;DHT22;14477;51.038;4.588;2023-04-15T04:44:34;11.10;97.40
26909;DHT22;14477;51.038;4.588;2023-04-15T04:47:00;11.10;97.50
26909;DHT22;14477;51.038;4.588;2023-04-15T04:49:25;11.10;97.50
26909;DHT22;14477;51.038;4.588;2023-04-15T04:51:51;11.10;97.60
26909;DHT22;14477;51.038;4.588;2023-04-15T04:54:17;11.10;97.60
26909;DHT22;14477;51.038;4.588;2023-04-15T04:56:43;11.10;97.60
26909;DHT22;14477;51.038;4.588;2023-04-15T04:59:08;11.10;97.60
26909;DHT22;14477;51.038;4.588;2023-04-15T05:01:34;11.10;97.60
26909;DHT22;14477;51.038;4.588;2023-04-15T05:04:00;11.10;98.00
26909;DHT22;14477;51.038;4.588;2023-04-15T05:06:26;11.10;97.70
26909;DHT22;14477;51.038;4.588;2023-04-15T05:08:52;11.10;97.80
26909;DHT22;14477;51.038;4.588;2023-04-15T05:11:17;11.10;97.80
26909;DHT22;14477;51.038;4.588;2023-04-15T05:13:43;11.10;97.80
26909;DHT22;14477;51.038;4.588;2023-04-15T05:16:09;11.20;97.90
26909;DHT22;14477;51.038;4.588;2023-04-15T05:18:34;11.20;97.80
26909;DHT22;14477;51.038;4.588;2023-04-15T05:21:01;11.20;97.90
26909;DHT22;14477;51.038;4.588;2023-04-15T05:23:27;11.20;97.90
26909;DHT22;14477;51.038;4.588;2023-04-15T05:25:52;11.20;98.00
26909;DHT22;14477;51.038;4.588;2023-04-15T05:28:18;11.20;98.10
26909;DHT22;14477;51.038;4.588;2023-04-15T05:30:44;11.20;98.10
26909;DHT22;14477;51.038;4.588;2023-04-15T05:33:10;11.20;98.10
26909;DHT22;14477;51.038;4.588;2023-04-15T05:35:36;11.20;98.10
26909;DHT22;14477;51.038;4.588;2023-04-15T05:38:02;11.20;98.10
26909;DHT22;14477;51.038;4.588;2023-04-15T05:40:29;11.20;98.10
26909;DHT22;14477;51.038;4.588;2023-04-15T05:42:55;11.20;98.10
26909;DHT22;14477;51.038;4.588;2023-04-15T05:45:21;11.30;98.20
26909;DHT22;14477;51.038;4.588;2023-04-15T05:47:47;11.30;98.30
26909;DHT22;14477;51.038;4.588;2023-04-15T05:50:15;11.30;98.20
26909;DHT22;14477;51.038;4.588;2023-04-15T05:52:41;11.30;98.20
26909;DHT22;14477;51.038;4.588;2023-04-15T05:55:06;11.30;98.30
26909;DHT22;14477;51.038;4.588;2023-04-15T05:57:32;11.40;98.30
26909;DHT22;14477;51.038;4.588;2023-04-15T05:59:58;11.40;98.30
26909;DHT22;14477;51.038;4.588;2023-04-15T06:02:24;11.40;98.30
26909;DHT22;14477;51.038;4.588;2023-04-15T06:04:49;11.40;98.30
26909;DHT22;14477;51.038;4.588;2023-04-15T06:07:15;11.50;98.30
26909;DHT22;14477;51.038;4.588;2023-04-15T06:09:41;11.50;98.30
26909;DHT22;14477;51.038;4.588;2023-04-15T06:12:07;11.60;98.40
26909;DHT22;14477;51.038;4.588;2023-04-15T06:14:37;11.50;98.40
26909;DHT22;14477;51.038;4.588;2023-04-15T06:17:03;11.60;98.50
26909;DHT22;14477;51.038;4.588;2023-04-15T06:19:29;11.60;98.50
26909;DHT22;14477;51.038;4.588;2023-04-15T06:21:55;11.70;98.70
26909;DHT22;14477;51.038;4.588;2023-04-15T06:24:20;11.70;98.70
26909;DHT22;14477;51.038;4.588;2023-04-15T06:26:46;11.70;98.70
26909;DHT22;14477;51.038;4.588;2023-04-15T06:29:11;11.80;98.70
26909;DHT22;14477;51.038;4.588;2023-04-15T06:31:37;11.80;98.70
26909;DHT22;14477;51.038;4.588;2023-04-15T06:34:03;11.80;98.80
26909;DHT22;14477;51.038;4.588;2023-04-15T06:36:28;11.90;98.80
26909;DHT22;14477;51.038;4.588;2023-04-15T06:38:54;11.90;98.90
26909;DHT22;14477;51.038;4.588;2023-04-15T06:41:20;12.00;98.90
26909;DHT22;14477;51.038;4.588;2023-04-15T06:43:46;12.00;98.80
26909;DHT22;14477;51.038;4.588;2023-04-15T06:46:12;12.10;98.90
26909;DHT22;14477;51.038;4.588;2023-04-15T06:48:37;12.10;98.90
26909;DHT22;14477;51.038;4.588;2023-04-15T06:51:03;12.20;99.00
26909;DHT22;14477;51.038;4.588;2023-04-15T06:53:29;12.30;99.00
26909;DHT22;14477;51.038;4.588;2023-04-15T06:55:54;12.30;99.00
26909;DHT22;14477;51.038;4.588;2023-04-15T06:58:20;12.40;99.00
26909;DHT22;14477;51.038;4.588;2023-04-15T07:00:46;12.50;99.10
26909;DHT22;14477;51.038;4.588;2023-04-15T07:03:13;12.50;99.10
26909;DHT22;14477;51.038;4.588;2023-04-15T07:05:40;12.60;98.90
26909;DHT22;14477;51.038;4.588;2023-04-15T07:08:06;12.70;99.00
26909;DHT22;14477;51.038;4.588;2023-04-15T07:10:33;12.70;99.30
26909;DHT22;14477;51.038;4.588;2023-04-15T07:12:58;12.80;99.30
26909;DHT22;14477;51.038;4.588;2023-04-15T07:15:24;12.90;99.30
26909;DHT22;14477;51.038;4.588;2023-04-15T07:17:50;13.00;99.40
26909;DHT22;14477;51.038;4.588;2023-04-15T07:20:15;13.00;99.50
26909;DHT22;14477;51.038;4.588;2023-04-15T07:22:41;13.20;99.70
26909;DHT22;14477;51.038;4.588;2023-04-15T07:25:07;13.30;99.90
26909;DHT22;14477;51.038;4.588;2023-04-15T07:27:33;13.40;99.90
26909;DHT22;14477;51.038;4.588;2023-04-15T07:29:59;13.60;99.90
26909;DHT22;14477;51.038;4.588;2023-04-15T07:32:25;13.80;99.90
26909;DHT22;14477;51.038;4.588;2023-04-15T07:34:51;14.10;99.90
26909;DHT22;14477;51.038;4.588;2023-04-15T07:37:18;14.30;99.90
26909;DHT22;14477;51.038;4.588;2023-04-15T07:39:44;14.60;99.90
26909;DHT22;14477;51.038;4.588;2023-04-15T07:42:10;14.90;99.90
26909;DHT22;14477;51.038;4.588;2023-04-15T07:44:36;15.40;99.90
26909;DHT22;14477;51.038;4.588;2023-04-15T07:47:02;15.90;99.90
26909;DHT22;14477;51.038;4.588;2023-04-15T07:49:28;16.40;99.90
26909;DHT22;14477;51.038;4.588;2023-04-15T07:51:54;17.00;99.90
26909;DHT22;14477;51.038;4.588;2023-04-15T07:54:22;17.70;99.90
26909;DHT22;14477;51.038;4.588;2023-04-15T07:56:47;18.40;99.90
26909;DHT22;14477;51.038;4.588;2023-04-15T07:59:13;18.90;99.90
26909;DHT22;14477;51.038;4.588;2023-04-15T08:01:42;19.50;99.90
26909;DHT22;14477;51.038;4.588;2023-04-15T08:04:08;20.00;99.90
26909;DHT22;14477;51.038;4.588;2023-04-15T08:06:34;20.50;99.90
26909;DHT22;14477;51.038;4.588;2023-04-15T08:09:01;20.90;99.90
26909;DHT22;14477;51.038;4.588;2023-04-15T08:11:27;21.40;99.90
26909;DHT22;14477;51.038;4.588;2023-04-15T08:13:52;21.80;99.90
26909;DHT22;14477;51.038;4.588;2023-04-15T08:16:20;22.10;99.30
26909;DHT22;14477;51.038;4.588;2023-04-15T08:18:47;22.40;98.30
26909;DHT22;14477;51.038;4.588;2023-04-15T08:21:13;22.70;98.00
26909;DHT22;14477;51.038;4.588;2023-04-15T08:23:40;23.00;97.90
26909;DHT22;14477;51.038;4.588;2023-04-15T08:26:05;23.20;97.40
26909;DHT22;14477;51.038;4.588;2023-04-15T08:28:33;23.40;97.50
26909;DHT22;14477;51.038;4.588;2023-04-15T08:30:58;23.60;97.10
26909;DHT22;14477;51.038;4.588;2023-04-15T08:33:24;23.70;97.10
26909;DHT22;14477;51.038;4.588;2023-04-15T08:35:50;23.90;96.90
26909;DHT22;14477;51.038;4.588;2023-04-15T08:38:16;24.10;97.00
26909;DHT22;14477;51.038;4.588;2023-04-15T08:40:44;24.30;96.80
26909;DHT22;14477;51.038;4.588;2023-04-15T08:43:27;24.40;95.40
26909;DHT22;14477;51.038;4.588;2023-04-15T08:45:54;24.60;93.20
26909;DHT22;14477;51.038;4.588;2023-04-15T08:48:20;24.80;94.80
26909;DHT22;14477;51.038;4.588;2023-04-15T08:50:47;24.90;95.70
26909;DHT22;14477;51.038;4.588;2023-04-15T08:53:14;24.90;94.50
26909;DHT22;14477;51.038;4.588;2023-04-15T08:55:51;25.00;94.40
26909;DHT22;14477;51.038;4.588;2023-04-15T08:58:18;24.90;90.00
26909;DHT22;14477;51.038;4.588;2023-04-15T09:00:44;24.90;93.70
26909;DHT22;14477;51.038;4.588;2023-04-15T09:03:10;25.00;94.20
26909;DHT22;14477;51.038;4.588;2023-04-15T09:05:37;25.00;93.70
26909;DHT22;14477;51.038;4.588;2023-04-15T09:08:03;25.10;94.80
26909;DHT22;14477;51.038;4.588;2023-04-15T09:10:30;25.30;94.90
26909;DHT22;14477;51.038;4.588;2023-04-15T09:12:56;25.40;95.40
26909;DHT22;14477;51.038;4.588;2023-04-15T09:15:24;25.60;94.40
26909;DHT22;14477;51.038;4.588;2023-04-15T09:17:52;25.80;92.80
26909;DHT22;14477;51.038;4.588;2023-04-15T09:20:17;25.80;93.50
26909;DHT22;14477;51.038;4.588;2023-04-15T09:22:45;25.90;92.80
26909;DHT22;14477;51.038;4.588;2023-04-15T09:27:50;25.80;91.10
26909;DHT22;14477;51.038;4.588;2023-04-15T09:30:17;25.80;90.30
26909;DHT22;14477;51.038;4.588;2023-04-15T09:32:59;25.80;91.70
26909;DHT22;14477;51.038;4.588;2023-04-15T09:35:27;25.80;86.00
26909;DHT22;14477;51.038;4.588;2023-04-15T09:38:00;25.80;91.00
26909;DHT22;14477;51.038;4.588;2023-04-15T09:40:41;25.80;90.60
26909;DHT22;14477;51.038;4.588;2023-04-15T09:43:09;25.70;83.70
26909;DHT22;14477;51.038;4.588;2023-04-15T09:45:37;25.70;90.40
26909;DHT22;14477;51.038;4.588;2023-04-15T09:48:18;25.80;91.70
26909;DHT22;14477;51.038;4.588;2023-04-15T09:50:45;25.80;79.20
26909;DHT22;14477;51.038;4.588;2023-04-15T09:53:15;26.00;91.50
26909;DHT22;14477;51.038;4.588;2023-04-15T09:55:48;26.10;90.00
26909;DHT22;14477;51.038;4.588;2023-04-15T09:58:21;26.20;90.10
26909;DHT22;14477;51.038;4.588;2023-04-15T10:00:48;26.40;89.40
26909;DHT22;14477;51.038;4.588;2023-04-15T10:03:35;26.50;90.10
26909;DHT22;14477;51.038;4.588;2023-04-15T10:06:02;26.60;85.40
26909;DHT22;14477;51.038;4.588;2023-04-15T10:08:30;26.60;88.30
26909;DHT22;14477;51.038;4.588;2023-04-15T10:10:58;26.80;87.70
26909;DHT22;14477;51.038;4.588;2023-04-15T10:13:26;26.80;87.40
26909;DHT22;14477;51.038;4.588;2023-04-15T10:15:58;26.90;87.10
26909;DHT22;14477;51.038;4.588;2023-04-15T10:18:26;27.00;82.60
26909;DHT22;14477;51.038;4.588;2023-04-15T10:20:53;27.10;86.70
26909;DHT22;14477;51.038;4.588;2023-04-15T10:23:21;27.20;83.60
26909;DHT22;14477;51.038;4.588;2023-04-15T10:25:48;27.30;80.70
26909;DHT22;14477;51.038;4.588;2023-04-15T10:28:15;27.30;80.00
26909;DHT22;14477;51.038;4.588;2023-04-15T10:30:42;27.40;80.70
26909;DHT22;14477;51.038;4.588;2023-04-15T10:33:09;27.40;78.60
26909;DHT22;14477;51.038;4.588;2023-04-15T10:35:35;27.50;80.50
26909;DHT22;14477;51.038;4.588;2023-04-15T10:38:02;27.60;82.20
26909;DHT22;14477;51.038;4.588;2023-04-15T10:40:31;27.70;79.70
26909;DHT22;14477;51.038;4.588;2023-04-15T10:42:59;27.70;79.70
26909;DHT22;14477;51.038;4.588;2023-04-15T10:45:34;27.70;77.60
26909;DHT22;14477;51.038;4.588;2023-04-15T10:48:02;27.70;80.00
26909;DHT22;14477;51.038;4.588;2023-04-15T10:50:30;27.80;79.00
26909;DHT22;14477;51.038;4.588;2023-04-15T10:52:57;27.90;75.60
26909;DHT22;14477;51.038;4.588;2023-04-15T10:55:25;28.00;78.30
26909;DHT22;14477;51.038;4.588;2023-04-15T10:57:52;28.10;77.20
26909;DHT22;14477;51.038;4.588;2023-04-15T11:00:19;28.30;77.40
26909;DHT22;14477;51.038;4.588;2023-04-15T11:03:12;28.40;76.50
26909;DHT22;14477;51.038;4.588;2023-04-15T11:08:06;28.60;72.10
26909;DHT22;14477;51.038;4.588;2023-04-15T11:13:03;28.70;75.60
26909;DHT22;14477;51.038;4.588;2023-04-15T11:15:38;28.80;71.70
26909;DHT22;14477;51.038;4.588;2023-04-15T11:20:40;28.80;65.40
26909;DHT22;14477;51.038;4.588;2023-04-15T11:23:06;28.80;69.00
26909;DHT22;14477;51.038;4.588;2023-04-15T11:25:34;28.80;67.30
26909;DHT22;14477;51.038;4.588;2023-04-15T11:28:01;28.70;64.60
26909;DHT22;14477;51.038;4.588;2023-04-15T11:30:30;28.60;67.90
26909;DHT22;14477;51.038;4.588;2023-04-15T11:33:01;28.50;66.00
26909;DHT22;14477;51.038;4.588;2023-04-15T11:35:29;28.50;66.10
26909;DHT22;14477;51.038;4.588;2023-04-15T11:37:54;28.40;67.70
26909;DHT22;14477;51.038;4.588;2023-04-15T11:40:28;28.40;67.50
26909;DHT22;14477;51.038;4.588;2023-04-15T11:43:18;28.30;60.80
26909;DHT22;14477;51.038;4.588;2023-04-15T11:45:59;28.20;58.30
26909;DHT22;14477;51.038;4.588;2023-04-15T11:48:33;28.10;59.50
26909;DHT22;14477;51.038;4.588;2023-04-15T11:51:05;28.00;60.70
26909;DHT22;14477;51.038;4.588;2023-04-15T11:56:16;27.90;58.80
26909;DHT22;14477;51.038;4.588;2023-04-15T11:58:42;28.00;65.30
26909;DHT22;14477;51.038;4.588;2023-04-15T12:01:09;28.00;67.70
26909;DHT22;14477;51.038;4.588;2023-04-15T12:03:44;28.20;68.10
26909;DHT22;14477;51.038;4.588;2023-04-15T12:09:03;28.50;70.50
26909;DHT22;14477;51.038;4.588;2023-04-15T12:14:04;29.00;65.50
26909;DHT22;14477;51.038;4.588;2023-04-15T12:16:30;29.10;69.10
26909;DHT22;14477;51.038;4.588;2023-04-15T12:18:57;29.30;66.90
26909;DHT22;14477;51.038;4.588;2023-04-15T12:21:32;29.40;68.20
26909;DHT22;14477;51.038;4.588;2023-04-15T12:24:01;29.60;67.30
26909;DHT22;14477;51.038;4.588;2023-04-15T12:26:29;29.80;62.80
26909;DHT22;14477;51.038;4.588;2023-04-15T12:29:06;29.80;63.60
26909;DHT22;14477;51.038;4.588;2023-04-15T12:31:36;29.70;60.50
26909;DHT22;14477;51.038;4.588;2023-04-15T12:34:06;29.60;63.10
26909;DHT22;14477;51.038;4.588;2023-04-15T12:36:32;29.60;62.20
26909;DHT22;14477;51.038;4.588;2023-04-15T12:39:04;29.50;59.90
26909;DHT22;14477;51.038;4.588;2023-04-15T12:41:33;29.40;57.80
26909;DHT22;14477;51.038;4.588;2023-04-15T12:44:00;29.30;58.50
26909;DHT22;14477;51.038;4.588;2023-04-15T12:46:26;29.20;62.20
26909;DHT22;14477;51.038;4.588;2023-04-15T12:48:51;29.20;61.50
26909;DHT22;14477;51.038;4.588;2023-04-15T12:51:18;29.10;59.50
26909;DHT22;14477;51.038;4.588;2023-04-15T12:53:47;29.00;59.80
26909;DHT22;14477;51.038;4.588;2023-04-15T12:56:14;29.00;61.30
26909;DHT22;14477;51.038;4.588;2023-04-15T12:58:41;28.90;62.60
26909;DHT22;14477;51.038;4.588;2023-04-15T13:01:07;29.00;63.20
26909;DHT22;14477;51.038;4.588;2023-04-15T13:03:33;29.20;63.20
26909;DHT22;14477;51.038;4.588;2023-04-15T13:05:59;29.30;59.60
26909;DHT22;14477;51.038;4.588;2023-04-15T13:08:26;29.30;59.60
26909;DHT22;14477;51.038;4.588;2023-04-15T13:10:52;29.20;59.60
26909;DHT22;14477;51.038;4.588;2023-04-15T13:13:18;29.00;58.90
26909;DHT22;14477;51.038;4.588;2023-04-15T13:15:44;28.90;58.60
26909;DHT22;14477;51.038;4.588;2023-04-15T13:18:10;28.60;57.30
26909;DHT22;14477;51.038;4.588;2023-04-15T13:20:36;28.30;55.70
26909;DHT22;14477;51.038;4.588;2023-04-15T13:23:01;27.90;55.50
26909;DHT22;14477;51.038;4.588;2023-04-15T13:25:27;27.60;57.20
26909;DHT22;14477;51.038;4.588;2023-04-15T13:27:53;27.50;58.90
26909;DHT22;14477;51.038;4.588;2023-04-15T13:30:19;27.50;60.10
26909;DHT22;14477;51.038;4.588;2023-04-15T13:32:45;27.50;60.30
26909;DHT22;14477;51.038;4.588;2023-04-15T13:35:11;27.60;61.70
26909;DHT22;14477;51.038;4.588;2023-04-15T13:37:36;27.80;62.30
26909;DHT22;14477;51.038;4.588;2023-04-15T13:40:04;28.00;63.20
26909;DHT22;14477;51.038;4.588;2023-04-15T13:42:31;28.20;62.30
26909;DHT22;14477;51.038;4.588;2023-04-15T13:44:57;28.40;61.60
26909;DHT22;14477;51.038;4.588;2023-04-15T13:47:23;28.50;60.80
26909;DHT22;14477;51.038;4.588;2023-04-15T13:49:48;28.50;60.10
26909;DHT22;14477;51.038;4.588;2023-04-15T13:52:14;28.50;59.00
26909;DHT22;14477;51.038;4.588;2023-04-15T13:54:40;28.40;58.30
26909;DHT22;14477;51.038;4.588;2023-04-15T13:57:06;28.30;56.80
26909;DHT22;14477;51.038;4.588;2023-04-15T13:59:36;28.00;53.60
26909;DHT22;14477;51.038;4.588;2023-04-15T14:02:02;27.60;52.40
26909;DHT22;14477;51.038;4.588;2023-04-15T14:04:27;27.30;55.60
26909;DHT22;14477;51.038;4.588;2023-04-15T14:06:53;27.10;56.50
26909;DHT22;14477;51.038;4.588;2023-04-15T14:09:19;26.90;56.90
26909;DHT22;14477;51.038;4.588;2023-04-15T14:11:46;26.70;56.90
26909;DHT22;14477;51.038;4.588;2023-04-15T14:14:12;26.60;55.90
26909;DHT22;14477;51.038;4.588;2023-04-15T14:16:38;26.40;56.70
26909;DHT22;14477;51.038;4.588;2023-04-15T14:19:03;26.20;54.50
26909;DHT22;14477;51.038;4.588;2023-04-15T14:21:29;26.00;55.30
26909;DHT22;14477;51.038;4.588;2023-04-15T14:23:57;25.80;55.40
26909;DHT22;14477;51.038;4.588;2023-04-15T14:26:23;25.60;54.90
26909;DHT22;14477;51.038;4.588;2023-04-15T14:28:48;25.40;54.10
26909;DHT22;14477;51.038;4.588;2023-04-15T14:31:14;25.20;54.50
26909;DHT22;14477;51.038;4.588;2023-04-15T14:33:40;25.00;55.00
26909;DHT22;14477;51.038;4.588;2023-04-15T14:36:08;24.80;56.20
26909;DHT22;14477;51.038;4.588;2023-04-15T14:38:35;24.70;57.60
26909;DHT22;14477;51.038;4.588;2023-04-15T14:41:07;24.70;57.00
26909;DHT22;14477;51.038;4.588;2023-04-15T14:43:33;24.60;55.50
26909;DHT22;14477;51.038;4.588;2023-04-15T14:45:59;24.50;55.70
26909;DHT22;14477;51.038;4.588;2023-04-15T14:48:25;24.30;57.10
26909;DHT22;14477;51.038;4.588;2023-04-15T14:50:51;24.20;58.10
26909;DHT22;14477;51.038;4.588;2023-04-15T14:53:17;24.20;58.80
26909;DHT22;14477;51.038;4.588;2023-04-15T14:55:43;24.20;58.70
26909;DHT22;14477;51.038;4.588;2023-04-15T14:58:10;24.30;58.30
26909;DHT22;14477;51.038;4.588;2023-04-15T15:00:38;24.20;57.40
26909;DHT22;14477;51.038;4.588;2023-04-15T15:03:07;24.20;57.20
26909;DHT22;14477;51.038;4.588;2023-04-15T15:05:40;24.10;56.70
26909;DHT22;14477;51.038;4.588;2023-04-15T15:08:07;23.90;57.40
26909;DHT22;14477;51.038;4.588;2023-04-15T15:10:34;23.80;58.40
26909;DHT22;14477;51.038;4.588;2023-04-15T15:13:02;23.60;57.70
26909;DHT22;14477;51.038;4.588;2023-04-15T15:15:28;23.60;58.80
26909;DHT22;14477;51.038;4.588;2023-04-15T15:17:54;23.50;59.40
26909;DHT22;14477;51.038;4.588;2023-04-15T15:20:20;23.50;60.40
26909;DHT22;14477;51.038;4.588;2023-04-15T15:22:46;23.50;59.70
26909;DHT22;14477;51.038;4.588;2023-04-15T15:25:11;23.40;59.00
26909;DHT22;14477;51.038;4.588;2023-04-15T15:27:37;23.30;58.30
26909;DHT22;14477;51.038;4.588;2023-04-15T15:30:03;23.10;58.10
26909;DHT22;14477;51.038;4.588;2023-04-15T15:32:31;23.00;57.70
26909;DHT22;14477;51.038;4.588;2023-04-15T15:34:56;22.70;58.40
26909;DHT22;14477;51.038;4.588;2023-04-15T15:37:22;22.60;57.40
26909;DHT22;14477;51.038;4.588;2023-04-15T15:39:48;22.40;57.70
26909;DHT22;14477;51.038;4.588;2023-04-15T15:42:17;22.20;57.70
26909;DHT22;14477;51.038;4.588;2023-04-15T15:44:43;21.90;58.20
26909;DHT22;14477;51.038;4.588;2023-04-15T15:47:08;21.80;58.60